FBSP

Selebi Phikwe Airport

Botswana
TAF FBSP 160900Z 1609/1618 07005KT 9999 BKN015 PROB30 TEMPO 1612/1618 TSRA FEW035CB
Issued Valid From Valid To
Feb-16 @ 09:00 UTC
(3 hours ago)
Feb-16 @ 09:00 UTC
(3 hours ago)
Feb-16 @ 18:00 UTC
(in 6 hours)
Feb-16 @ 09:00 to Feb-16 @ 18:00
TAF FBSP 160900Z 1609/1618 07005KT 9999 BKN015
Wind Visibility Clouds
70° at 5 knots 10,000+ meters
  • Broken at 1,500' AGL
Temporary  (Probability 30%) Feb-16 @ 12:00 to Feb-16 @ 18:00
PROB30 TEMPO 1612/1618 TSRA FEW035CB
Clouds Conditions
  • Few at 3,500' AGL
  • Thunderstorm
  • Rain
TAF FBSP 160900Z 1609/1618 07005KT 9999 BKN015 PROB30 TEMPO 1612/1618 TSRA FEW035CB
Issued Feb-16 @ 09:00 UTC
(3 hours ago)
Valid From Feb-16 @ 09:00 UTC
(3 hours ago)
Valid To Feb-16 @ 18:00 UTC
(in 6 hours)
Feb-16 @ 09:00 - Feb-16 @ 18:00
Wind Visibility
70° at 5 knots 10,000+ meters
Clouds
  • Broken at 1,500' AGL
Probability 30% Temporary Feb-16 @ 12:00 - Feb-16 @ 18:00
Clouds
  • Few at 3,500' AGL
Conditions
  • Thunderstorm
  • Rain